Time;durP1;ratioP1;P1;durP2;ratioP2;P2;SDS_P1;SDS_P2;PMS_P1;PMS_P2;Temp;Humidity;BMP_temperature;BMP_pressure;BME280_temperature;BME280_humidity;BME280_pressure;Samples;Min_cycle;Max_cycle;Signal;HPM_P1;HPM_P2
2023/04/14 16:36:27;;;;;;;;;;;18.90;99.90;;;;;;5249064;28;20433;-68
2023/04/14 16:38:58;;;;;;;28.17;25.77;;;18.90;99.90;;;;;;5223140;28;19909;-67
2023/04/14 16:41:29;;;;;;;95.20;85.40;;;18.90;99.90;;;;;;5224360;28;20087;-69
2023/04/14 16:44:00;;;;;;;72.95;65.75;;;19.10;99.90;;;;;;5222860;28;20056;-69
2023/04/14 16:46:30;;;;;;;95.72;86.00;;;19.30;99.90;;;;;;5223747;28;20064;-68
2023/04/14 16:49:01;;;;;;;110.32;99.40;;;19.80;99.90;;;;;;5223867;28;20033;-74
2023/04/14 16:51:32;;;;;;;119.13;107.82;;;20.40;99.90;;;;;;5223660;28;20025;-74
2023/04/14 16:54:03;;;;;;;124.40;113.20;;;21.00;99.90;;;;;;5217108;28;20052;-65
2023/04/14 16:56:35;;;;;;;113.45;102.80;;;21.50;99.90;;;;;;5214603;28;20033;-72
2023/04/14 16:59:06;;;;;;;111.53;101.35;;;21.80;99.90;;;;;;5207458;28;20049;-70
2023/04/14 17:01:37;;;;;;;107.82;97.88;;;21.90;99.90;;;;;;5202879;28;20057;-71
2023/04/14 17:04:07;;;;;;;100.40;91.28;;;22.00;99.90;;;;;;5202500;28;20038;-72
2023/04/14 17:06:38;;;;;;;96.40;87.40;;;22.10;99.90;;;;;;5232689;28;20146;-71
2023/04/14 17:09:09;;;;;;;89.50;81.07;;;22.10;99.90;;;;;;5215461;28;20128;-71
2023/04/14 17:11:41;;;;;;;91.97;83.82;;;22.10;99.90;;;;;;5222538;28;20034;-72
2023/04/14 17:14:12;;;;;;;83.68;76.05;;;22.20;99.90;;;;;;5222964;28;20029;-72
2023/04/14 17:16:43;;;;;;;84.55;76.90;;;22.20;99.90;;;;;;5222830;28;20033;-72
2023/04/14 17:19:15;;;;;;;77.55;70.72;;;22.30;99.90;;;;;;5204849;28;20350;-71
2023/04/14 17:21:48;;;;;;;83.00;75.43;;;22.30;99.90;;;;;;5238200;28;20033;-72
2023/04/14 17:24:19;;;;;;;79.30;71.88;;;22.40;99.90;;;;;;5234458;28;20044;-71
2023/04/14 17:26:50;;;;;;;72.28;65.65;;;22.30;99.90;;;;;;5208379;28;20030;-72
2023/04/14 17:29:21;;;;;;;65.78;59.63;;;22.30;99.90;;;;;;5211262;28;20041;-71
2023/04/14 17:31:53;;;;;;;67.65;61.22;;;22.50;99.90;;;;;;5221466;28;20021;-70
2023/04/14 17:34:24;;;;;;;69.15;62.83;;;22.90;99.90;;;;;;5211458;28;20045;-71
2023/04/14 17:36:56;;;;;;;62.75;57.35;;;23.00;99.90;;;;;;5202022;28;20508;-68
2023/04/14 17:39:27;;;;;;;63.63;57.83;;;23.00;99.90;;;;;;5202063;28;20025;-70
2023/04/14 17:41:58;;;;;;;59.33;54.13;;;23.00;99.90;;;;;;5203409;28;20045;-70
2023/04/14 17:44:33;;;;;;;58.53;53.15;;;22.90;99.90;;;;;;5222166;28;20029;-68
2023/04/14 17:47:11;;;;;;;60.45;54.95;;;22.90;99.90;;;;;;5206077;28;20034;-74
2023/04/14 17:49:45;;;;;;;57.50;52.40;;;22.90;99.90;;;;;;5208642;28;20017;-66
2023/04/14 17:52:17;;;;;;;57.78;52.35;;;22.80;99.90;;;;;;5208092;28;20041;-64
2023/04/14 17:54:48;;;;;;;55.10;50.47;;;22.70;99.90;;;;;;5136161;28;20136;-70
2023/04/14 17:57:19;;;;;;;176.73;166.73;;;22.70;99.90;;;;;;5123453;28;20168;-75
2023/04/14 17:59:54;;;;;;;244.40;230.70;;;19.40;99.90;;;;;;5101537;28;20043;-78
2023/04/14 18:02:26;;;;;;;307.48;289.55;;;18.10;99.90;;;;;;5165644;28;20034;-74
2023/04/14 18:04:57;;;;;;;286.75;270.02;;;17.60;99.90;;;;;;5164382;28;20490;-81
2023/04/14 18:07:28;;;;;;;318.42;300.20;;;17.40;99.90;;;;;;5167195;28;20027;-73
2023/04/14 18:09:58;;;;;;;312.27;293.95;;;17.10;99.90;;;;;;5166824;28;20084;-72
2023/04/14 18:12:30;;;;;;;318.73;299.20;;;16.90;99.90;;;;;;5164636;28;20034;-74
2023/04/14 18:15:00;;;;;;;343.15;322.25;;;16.40;99.90;;;;;;5167057;28;20042;-76
2023/04/14 18:17:33;;;;;;;214.35;201.65;;;16.20;99.90;;;;;;5166690;28;20413;-77
2023/04/14 18:20:05;;;;;;;279.38;262.58;;;16.20;99.90;;;;;;5167629;28;20026;-72
2023/04/14 18:22:36;;;;;;;234.32;220.25;;;16.20;99.90;;;;;;5167475;28;20018;-73
2023/04/14 18:25:08;;;;;;;215.25;202.35;;;16.20;99.90;;;;;;5166179;28;20056;-76
2023/04/14 18:27:39;;;;;;;186.27;175.27;;;16.30;99.90;;;;;;5166186;28;20410;-76
2023/04/14 18:30:10;;;;;;;172.93;162.43;;;16.00;99.90;;;;;;5166824;28;20041;-79
2023/04/14 18:32:41;;;;;;;184.68;173.65;;;15.90;99.90;;;;;;5165785;28;20121;-79
2023/04/14 18:35:14;;;;;;;154.93;145.30;;;15.90;99.90;;;;;;5096581;28;20141;-80
2023/04/14 18:37:45;;;;;;;157.70;148.15;;;15.90;99.90;;;;;;5147223;28;20360;-77
2023/04/14 18:40:16;;;;;;;157.02;147.73;;;15.90;99.90;;;;;;5179564;28;20130;-76
2023/04/14 18:42:47;;;;;;;145.05;136.98;;;15.90;99.90;;;;;;5177832;28;20449;-74
2023/04/14 18:45:18;;;;;;;155.60;146.63;;;15.90;99.90;;;;;;5148886;28;20027;-79
2023/04/14 18:47:49;;;;;;;154.18;145.10;;;15.90;99.90;;;;;;5142023;28;20096;-79
2023/04/14 18:50:20;;;;;;;133.00;125.05;;;15.80;99.90;;;;;;5162439;28;20039;-79
2023/04/14 18:52:51;;;;;;;138.25;130.05;;;15.50;99.90;;;;;;5166650;28;20101;-78
2023/04/14 18:55:22;;;;;;;139.27;131.05;;;15.50;99.90;;;;;;5166645;28;20511;-85
2023/04/14 18:57:52;;;;;;;133.77;125.93;;;15.40;99.90;;;;;;5161662;28;20028;-79
2023/04/14 19:00:28;;;;;;;123.72;116.15;;;15.30;99.90;;;;;;5165908;28;20150;-77
2023/04/14 19:02:59;;;;;;;143.20;134.60;;;15.40;99.90;;;;;;5166156;28;20050;-78
2023/04/14 19:05:30;;;;;;;123.40;116.25;;;15.30;99.90;;;;;;5166384;28;20062;-77
2023/04/14 19:08:01;;;;;;;154.25;145.07;;;15.30;99.90;;;;;;5166150;28;20053;-82
2023/04/14 19:10:32;;;;;;;150.40;141.48;;;15.20;99.90;;;;;;5165918;28;20030;-83
2023/04/14 19:13:03;;;;;;;147.68;138.73;;;15.20;99.90;;;;;;5166616;28;20022;-84
2023/04/14 19:15:35;;;;;;;136.15;127.95;;;15.10;99.90;;;;;;5165587;28;20449;-80
2023/04/14 19:18:06;;;;;;;142.18;133.40;;;15.00;99.90;;;;;;5155945;28;20018;-80
2023/04/14 19:20:37;;;;;;;139.55;131.05;;;14.80;99.90;;;;;;5118425;28;20042;-76
2023/04/14 19:23:08;;;;;;;134.52;126.30;;;14.80;99.90;;;;;;5161753;28;20029;-73
2023/04/14 19:25:40;;;;;;;139.90;131.05;;;14.70;99.90;;;;;;5165208;28;20355;-75
2023/04/14 19:28:15;;;;;;;131.38;123.38;;;14.60;99.90;;;;;;5166205;28;20022;-72
2023/04/14 19:30:46;;;;;;;130.82;122.97;;;14.60;99.90;;;;;;5165131;28;20033;-76
2023/04/14 19:33:19;;;;;;;125.68;118.15;;;14.60;99.90;;;;;;5163778;28;20026;-79
2023/04/14 19:35:51;;;;;;;130.25;122.32;;;14.50;99.90;;;;;;5164042;28;20066;-78
2023/04/14 19:38:22;;;;;;;128.13;120.35;;;14.70;99.90;;;;;;5163268;28;20022;-73
2023/04/14 19:40:53;;;;;;;120.20;113.18;;;14.80;99.90;;;;;;5153901;28;20134;-73
2023/04/14 19:43:24;;;;;;;118.82;111.75;;;14.80;99.90;;;;;;5162165;28;20041;-73
2023/04/14 19:45:56;;;;;;;117.78;110.70;;;14.80;99.90;;;;;;5164258;28;20040;-76
2023/04/14 19:48:27;;;;;;;119.60;112.60;;;14.70;99.90;;;;;;5165709;28;20026;-78
2023/04/14 19:50:58;;;;;;;111.47;105.00;;;14.70;99.90;;;;;;5165868;28;20037;-78
2023/04/14 19:53:29;;;;;;;115.07;108.30;;;14.70;99.90;;;;;;5165674;28;20466;-76
2023/04/14 19:56:00;;;;;;;108.65;102.07;;;14.80;99.90;;;;;;5166061;28;20038;-75
2023/04/14 19:58:31;;;;;;;117.05;110.18;;;14.70;99.90;;;;;;5165000;28;20490;-78
2023/04/14 20:01:02;;;;;;;105.95;99.45;;;14.60;99.90;;;;;;5176117;28;20021;-76
2023/04/14 20:03:33;;;;;;;110.28;103.63;;;14.40;99.90;;;;;;5165242;28;20030;-76
2023/04/14 20:06:04;;;;;;;110.07;103.18;;;14.60;99.90;;;;;;5165202;28;20034;-91
2023/04/14 20:08:34;;;;;;;120.63;113.40;;;14.40;99.90;;;;;;5164757;28;20509;-76
2023/04/14 20:11:05;;;;;;;114.00;106.95;;;14.40;99.90;;;;;;5165077;28;20030;-77
2023/04/14 20:13:38;;;;;;;111.05;104.13;;;14.30;99.90;;;;;;5165140;28;20034;-75
2023/04/14 20:16:09;;;;;;;105.95;99.47;;;14.20;99.90;;;;;;5165101;28;20360;-75
2023/04/14 20:18:44;;;;;;;107.72;101.15;;;14.20;99.90;;;;;;5162092;28;20049;-76
2023/04/14 20:21:15;;;;;;;113.00;106.35;;;14.00;99.90;;;;;;5161101;28;20038;-73
2023/04/14 20:23:46;;;;;;;104.65;98.35;;;13.90;99.90;;;;;;5164865;28;20497;-73
2023/04/14 20:26:17;;;;;;;109.18;102.45;;;14.00;99.90;;;;;;5155347;28;20428;-76
2023/04/14 20:28:48;;;;;;;108.72;101.95;;;14.10;99.90;;;;;;5149427;28;20169;-72
2023/04/14 20:31:20;;;;;;;109.47;102.75;;;13.90;99.90;;;;;;5159082;28;20437;-75
2023/04/14 20:33:51;;;;;;;103.75;97.28;;;13.80;99.90;;;;;;5163393;28;20378;-77
2023/04/14 20:36:22;;;;;;;114.40;107.00;;;13.60;99.90;;;;;;5164444;28;20058;-72
2023/04/14 20:38:53;;;;;;;113.10;106.00;;;13.70;99.90;;;;;;5164719;28;20029;-71
2023/04/14 20:41:24;;;;;;;106.07;99.38;;;13.80;99.90;;;;;;5164133;28;20026;-72
2023/04/14 20:43:54;;;;;;;108.80;102.03;;;13.70;99.90;;;;;;5164111;28;20177;-76
2023/04/14 20:46:25;;;;;;;105.82;99.30;;;13.70;99.90;;;;;;5165042;28;20026;-81
2023/04/14 20:48:56;;;;;;;111.28;104.13;;;13.70;99.90;;;;;;5163488;28;20038;-75
2023/04/14 20:51:27;;;;;;;111.53;104.38;;;13.60;99.90;;;;;;5162333;28;20378;-72
2023/04/14 20:54:00;;;;;;;113.50;106.68;;;13.70;99.90;;;;;;5157783;28;20033;-75
2023/04/14 20:56:32;;;;;;;110.95;104.13;;;13.70;99.90;;;;;;5183506;28;20088;-75
2023/04/14 20:59:04;;;;;;;108.47;101.63;;;13.70;99.90;;;;;;5162253;28;20026;-79
2023/04/14 21:01:36;;;;;;;109.65;102.78;;;13.70;99.90;;;;;;5163937;28;20062;-82
2023/04/14 21:04:08;;;;;;;115.28;108.22;;;13.60;99.90;;;;;;5160734;28;20034;-83
2023/04/14 21:06:39;;;;;;;106.38;99.70;;;13.50;99.90;;;;;;5164935;28;20037;-78
2023/04/14 21:09:10;;;;;;;105.55;99.15;;;13.30;99.90;;;;;;5165666;28;20386;-82
2023/04/14 21:11:41;;;;;;;113.05;105.85;;;13.30;99.90;;;;;;5166795;28;20789;-74
2023/04/14 21:14:12;;;;;;;123.78;116.07;;;13.30;99.90;;;;;;5164490;28;20037;-79
2023/04/14 21:16:43;;;;;;;122.47;114.68;;;13.10;99.90;;;;;;5157362;28;20371;-73
2023/04/14 21:19:13;;;;;;;124.63;116.85;;;13.30;99.90;;;;;;5164265;28;20041;-75
2023/04/14 21:21:44;;;;;;;124.55;116.78;;;13.20;99.90;;;;;;5164390;28;20093;-73
2023/04/14 21:24:15;;;;;;;123.72;116.18;;;13.10;99.90;;;;;;5166699;28;20097;-76
2023/04/14 21:26:46;;;;;;;126.30;118.63;;;12.90;99.90;;;;;;5167864;28;20030;-71
2023/04/14 21:29:17;;;;;;;130.13;122.28;;;13.00;99.90;;;;;;5167572;28;20553;-75
2023/04/14 21:31:48;;;;;;;130.15;121.93;;;12.90;99.90;;;;;;5179900;28;20084;-73
2023/04/14 21:34:18;;;;;;;130.07;121.75;;;13.10;99.90;;;;;;5164612;28;20146;-72
2023/04/14 21:36:49;;;;;;;124.30;116.53;;;13.00;99.90;;;;;;5167145;28;20034;-76
2023/04/14 21:39:20;;;;;;;135.88;127.70;;;12.90;99.90;;;;;;5163026;28;20043;-86
2023/04/14 21:41:51;;;;;;;131.63;123.30;;;12.90;99.90;;;;;;5159538;28;20434;-77
2023/04/14 21:44:22;;;;;;;130.15;122.07;;;12.90;99.90;;;;;;5156152;28;20023;-73
2023/04/14 21:46:54;;;;;;;130.35;122.20;;;13.00;99.90;;;;;;5168021;28;20109;-76
2023/04/14 21:49:25;;;;;;;129.57;121.55;;;12.90;99.90;;;;;;5160489;28;20030;-74
2023/04/14 21:51:56;;;;;;;130.60;122.35;;;13.20;99.90;;;;;;5155814;28;20093;-76
2023/04/14 21:54:28;;;;;;;129.85;121.57;;;13.30;99.90;;;;;;5162712;28;20074;-75
2023/04/14 21:56:59;;;;;;;119.57;112.03;;;13.30;99.90;;;;;;5157719;28;20105;-78
2023/04/14 21:59:30;;;;;;;118.35;110.78;;;13.40;99.90;;;;;;5153610;28;20121;-73
2023/04/14 22:02:01;;;;;;;127.63;119.40;;;13.30;99.90;;;;;;5160316;28;20481;-77
2023/04/14 22:04:32;;;;;;;134.02;125.13;;;13.30;99.90;;;;;;5165911;28;20027;-79
2023/04/14 22:07:04;;;;;;;118.60;111.35;;;13.30;99.90;;;;;;5165343;28;20080;-81
2023/04/14 22:09:35;;;;;;;130.77;122.88;;;13.30;99.90;;;;;;5157386;28;20014;-80
2023/04/14 22:12:06;;;;;;;127.15;119.38;;;13.30;99.90;;;;;;5164243;28;20030;-80
2023/04/14 22:14:37;;;;;;;123.30;115.38;;;13.20;99.90;;;;;;5178379;28;20034;-79
2023/04/14 22:17:08;;;;;;;118.95;111.13;;;13.10;99.90;;;;;;5146667;28;20042;-77
2023/04/14 22:19:39;;;;;;;124.63;116.32;;;13.10;99.90;;;;;;5162755;28;20025;-80
2023/04/14 22:22:10;;;;;;;133.05;125.05;;;13.00;99.90;;;;;;5155441;28;20023;-77
2023/04/14 22:24:42;;;;;;;135.95;127.55;;;13.00;99.90;;;;;;5162053;28;20027;-80
2023/04/14 22:27:13;;;;;;;144.80;136.00;;;12.90;99.90;;;;;;5154269;28;20025;-80
2023/04/14 22:29:44;;;;;;;141.23;132.15;;;12.90;99.90;;;;;;5150911;28;20014;-81
2023/04/14 22:32:15;;;;;;;140.57;131.60;;;12.90;99.90;;;;;;5161530;28;20027;-79
2023/04/14 22:34:47;;;;;;;142.13;133.43;;;12.90;99.90;;;;;;5160535;28;20050;-81
2023/04/14 22:37:17;;;;;;;139.82;131.02;;;12.90;99.90;;;;;;5158454;28;20126;-80
2023/04/14 22:39:48;;;;;;;135.98;127.38;;;12.70;99.90;;;;;;5176107;28;20113;-80
2023/04/14 22:42:19;;;;;;;137.13;128.43;;;12.60;99.90;;;;;;5152903;28;20097;-81
2023/04/14 22:44:51;;;;;;;142.88;134.20;;;12.50;99.90;;;;;;5158640;28;20058;-80
2023/04/14 22:47:22;;;;;;;134.70;126.10;;;12.50;99.90;;;;;;5165192;28;20105;-79
2023/04/14 22:49:53;;;;;;;131.27;123.28;;;12.60;99.90;;;;;;5153482;28;20105;-80
2023/04/14 22:52:26;;;;;;;126.68;118.75;;;12.60;99.90;;;;;;5158032;28;20023;-81
2023/04/14 22:54:57;;;;;;;130.05;121.93;;;12.60;99.90;;;;;;5162604;28;20019;-80
2023/04/14 22:57:27;;;;;;;122.78;115.25;;;12.60;99.90;;;;;;5164804;28;20033;-79
2023/04/14 22:59:58;;;;;;;119.93;112.63;;;12.70;99.90;;;;;;5160733;28;20122;-78
2023/04/14 23:02:29;;;;;;;111.63;104.50;;;12.40;99.90;;;;;;5163510;28;20096;-80
2023/04/14 23:05:00;;;;;;;107.35;100.57;;;12.50;99.90;;;;;;5164795;28;20116;-80
2023/04/14 23:07:31;;;;;;;100.93;94.90;;;12.50;99.90;;;;;;5160937;28;20478;-80
2023/04/14 23:10:02;;;;;;;96.53;90.65;;;12.60;99.90;;;;;;5161447;28;20018;-81
2023/04/14 23:12:33;;;;;;;104.25;97.50;;;12.50;99.90;;;;;;5158099;28;20053;-81
2023/04/14 23:15:05;;;;;;;101.20;95.18;;;12.50;99.90;;;;;;5153077;28;20061;-80
2023/04/14 23:17:36;;;;;;;103.47;97.00;;;12.40;99.90;;;;;;5161150;28;20105;-80
2023/04/14 23:20:07;;;;;;;105.78;99.22;;;12.30;99.90;;;;;;5158729;28;20105;-81
2023/04/14 23:22:41;;;;;;;103.80;97.45;;;12.50;99.90;;;;;;5162930;28;20029;-82
2023/04/14 23:25:17;;;;;;;97.85;91.75;;;12.40;99.90;;;;;;5161363;28;20042;-81
2023/04/14 23:27:49;;;;;;;98.78;92.57;;;12.40;99.90;;;;;;5165095;28;20026;-81
2023/04/14 23:30:20;;;;;;;100.18;94.18;;;12.40;99.90;;;;;;5163758;28;20386;-81
2023/04/14 23:32:51;;;;;;;100.15;94.15;;;12.40;99.90;;;;;;5145425;28;20022;-80
2023/04/14 23:35:21;;;;;;;107.72;100.97;;;12.40;99.90;;;;;;5147400;28;20051;-80
2023/04/14 23:37:52;;;;;;;102.35;96.00;;;12.40;99.90;;;;;;5149349;28;20118;-80
2023/04/14 23:40:23;;;;;;;104.35;97.80;;;12.40;99.90;;;;;;5160246;28;20038;-78
2023/04/14 23:42:57;;;;;;;105.47;99.07;;;12.40;99.90;;;;;;5147977;28;20022;-80
2023/04/14 23:45:35;;;;;;;109.43;102.68;;;12.30;99.90;;;;;;5155490;28;20121;-79
2023/04/14 23:48:07;;;;;;;107.40;100.88;;;12.50;99.90;;;;;;5174820;28;20018;-79
2023/04/14 23:50:38;;;;;;;102.72;96.53;;;12.60;99.90;;;;;;5146845;28;20134;-79
2023/04/14 23:53:09;;;;;;;98.65;92.40;;;12.90;99.90;;;;;;5143443;28;20110;-79
2023/04/14 23:55:41;;;;;;;104.28;98.10;;;13.20;99.90;;;;;;5144682;28;20053;-78
2023/04/14 23:58:12;;;;;;;104.78;98.45;;;13.50;99.90;;;;;;5156404;28;20475;-76
